sensor_id;sensor_type;location;lat;lon;timestamp;temperature;humidity
5346;DHT22;2695;49.444;11.054;2023-07-13T00:00:12;23.90;72.90
5346;DHT22;2695;49.444;11.054;2023-07-13T00:02:42;24.00;73.20
5346;DHT22;2695;49.444;11.054;2023-07-13T00:05:10;23.90;73.40
5346;DHT22;2695;49.444;11.054;2023-07-13T00:07:39;23.90;73.60
5346;DHT22;2695;49.444;11.054;2023-07-13T00:10:08;23.90;73.70
5346;DHT22;2695;49.444;11.054;2023-07-13T00:12:37;23.80;73.90
5346;DHT22;2695;49.444;11.054;2023-07-13T00:15:13;23.80;74.10
5346;DHT22;2695;49.444;11.054;2023-07-13T00:17:43;23.80;74.30
5346;DHT22;2695;49.444;11.054;2023-07-13T00:20:12;23.70;74.70
5346;DHT22;2695;49.444;11.054;2023-07-13T00:22:43;23.70;74.80
5346;DHT22;2695;49.444;11.054;2023-07-13T00:25:15;23.80;75.00
5346;DHT22;2695;49.444;11.054;2023-07-13T00:27:47;23.70;75.10
5346;DHT22;2695;49.444;11.054;2023-07-13T00:30:17;23.70;75.40
5346;DHT22;2695;49.444;11.054;2023-07-13T00:32:45;23.60;75.40
5346;DHT22;2695;49.444;11.054;2023-07-13T00:35:14;23.60;75.70
5346;DHT22;2695;49.444;11.054;2023-07-13T00:37:42;23.50;76.00
5346;DHT22;2695;49.444;11.054;2023-07-13T00:40:12;23.50;76.10
5346;DHT22;2695;49.444;11.054;2023-07-13T00:42:41;23.50;76.30
5346;DHT22;2695;49.444;11.054;2023-07-13T00:48:13;23.40;76.80
5346;DHT22;2695;49.444;11.054;2023-07-13T00:50:47;23.30;76.70
5346;DHT22;2695;49.444;11.054;2023-07-13T00:53:27;23.30;77.00
5346;DHT22;2695;49.444;11.054;2023-07-13T00:56:07;23.30;77.50
5346;DHT22;2695;49.444;11.054;2023-07-13T00:58:52;23.30;77.40
5346;DHT22;2695;49.444;11.054;2023-07-13T01:01:26;23.40;77.10
5346;DHT22;2695;49.444;11.054;2023-07-13T01:03:56;23.30;77.30
5346;DHT22;2695;49.444;11.054;2023-07-13T01:06:26;23.40;77.40
5346;DHT22;2695;49.444;11.054;2023-07-13T01:08:56;23.30;77.50
5346;DHT22;2695;49.444;11.054;2023-07-13T01:11:36;23.30;77.60
5346;DHT22;2695;49.444;11.054;2023-07-13T01:14:05;23.20;77.60
5346;DHT22;2695;49.444;11.054;2023-07-13T01:16:37;23.10;77.90
5346;DHT22;2695;49.444;11.054;2023-07-13T01:19:13;23.10;78.20
5346;DHT22;2695;49.444;11.054;2023-07-13T01:21:53;23.00;78.90
5346;DHT22;2695;49.444;11.054;2023-07-13T01:24:21;23.00;79.40
5346;DHT22;2695;49.444;11.054;2023-07-13T01:26:58;23.00;79.60
5346;DHT22;2695;49.444;11.054;2023-07-13T01:29:26;22.90;79.60
5346;DHT22;2695;49.444;11.054;2023-07-13T01:31:55;22.90;79.30
5346;DHT22;2695;49.444;11.054;2023-07-13T01:34:24;22.80;79.40
5346;DHT22;2695;49.444;11.054;2023-07-13T01:36:53;22.80;79.80
5346;DHT22;2695;49.444;11.054;2023-07-13T01:39:22;22.80;80.40
5346;DHT22;2695;49.444;11.054;2023-07-13T01:41:50;22.70;80.30
5346;DHT22;2695;49.444;11.054;2023-07-13T01:44:18;22.70;80.70
5346;DHT22;2695;49.444;11.054;2023-07-13T01:46:47;22.60;80.80
5346;DHT22;2695;49.444;11.054;2023-07-13T01:49:15;22.60;81.20
5346;DHT22;2695;49.444;11.054;2023-07-13T01:51:43;22.50;81.80
5346;DHT22;2695;49.444;11.054;2023-07-13T01:54:14;22.50;82.00
5346;DHT22;2695;49.444;11.054;2023-07-13T01:56:42;22.40;82.20
5346;DHT22;2695;49.444;11.054;2023-07-13T01:59:10;22.40;82.40
5346;DHT22;2695;49.444;11.054;2023-07-13T02:01:41;22.30;82.40
5346;DHT22;2695;49.444;11.054;2023-07-13T02:04:11;22.30;82.90
5346;DHT22;2695;49.444;11.054;2023-07-13T02:06:40;22.20;83.20
5346;DHT22;2695;49.444;11.054;2023-07-13T02:09:12;22.20;83.70
5346;DHT22;2695;49.444;11.054;2023-07-13T02:11:41;22.20;84.10
5346;DHT22;2695;49.444;11.054;2023-07-13T02:14:09;22.00;84.10
5346;DHT22;2695;49.444;11.054;2023-07-13T02:16:39;22.00;84.50
5346;DHT22;2695;49.444;11.054;2023-07-13T02:19:07;21.80;84.60
5346;DHT22;2695;49.444;11.054;2023-07-13T02:21:35;21.90;85.20
5346;DHT22;2695;49.444;11.054;2023-07-13T02:24:04;21.90;85.20
5346;DHT22;2695;49.444;11.054;2023-07-13T02:26:34;21.90;85.40
5346;DHT22;2695;49.444;11.054;2023-07-13T02:29:06;21.90;85.40
5346;DHT22;2695;49.444;11.054;2023-07-13T02:31:34;21.90;85.90
5346;DHT22;2695;49.444;11.054;2023-07-13T02:34:02;21.80;85.90
5346;DHT22;2695;49.444;11.054;2023-07-13T02:36:31;21.80;85.90
5346;DHT22;2695;49.444;11.054;2023-07-13T02:39:03;22.00;86.10
5346;DHT22;2695;49.444;11.054;2023-07-13T02:41:32;21.80;85.90
5346;DHT22;2695;49.444;11.054;2023-07-13T02:44:00;21.70;86.00
5346;DHT22;2695;49.444;11.054;2023-07-13T02:46:33;21.60;86.30
5346;DHT22;2695;49.444;11.054;2023-07-13T02:49:01;21.50;86.60
5346;DHT22;2695;49.444;11.054;2023-07-13T02:51:30;21.50;87.10
5346;DHT22;2695;49.444;11.054;2023-07-13T02:54:01;21.40;87.20
5346;DHT22;2695;49.444;11.054;2023-07-13T02:56:30;21.40;87.80
5346;DHT22;2695;49.444;11.054;2023-07-13T02:58:59;21.40;88.30
5346;DHT22;2695;49.444;11.054;2023-07-13T03:01:27;21.40;88.30
5346;DHT22;2695;49.444;11.054;2023-07-13T03:03:56;21.30;87.60
5346;DHT22;2695;49.444;11.054;2023-07-13T03:06:27;21.30;88.10
5346;DHT22;2695;49.444;11.054;2023-07-13T03:09:00;21.30;88.30
5346;DHT22;2695;49.444;11.054;2023-07-13T03:11:30;21.20;88.30
5346;DHT22;2695;49.444;11.054;2023-07-13T03:13:58;21.20;88.90
5346;DHT22;2695;49.444;11.054;2023-07-13T03:16:27;21.10;89.10
5346;DHT22;2695;49.444;11.054;2023-07-13T03:18:56;21.10;88.80
5346;DHT22;2695;49.444;11.054;2023-07-13T03:21:24;21.00;88.90
5346;DHT22;2695;49.444;11.054;2023-07-13T03:23:54;21.00;89.20
5346;DHT22;2695;49.444;11.054;2023-07-13T03:26:24;21.00;89.40
5346;DHT22;2695;49.444;11.054;2023-07-13T03:28:52;21.00;90.00
5346;DHT22;2695;49.444;11.054;2023-07-13T03:31:24;21.00;90.10
5346;DHT22;2695;49.444;11.054;2023-07-13T03:33:57;20.90;89.90
5346;DHT22;2695;49.444;11.054;2023-07-13T03:36:30;20.90;89.60
5346;DHT22;2695;49.444;11.054;2023-07-13T03:39:00;20.90;89.70
5346;DHT22;2695;49.444;11.054;2023-07-13T03:41:36;20.90;88.80
5346;DHT22;2695;49.444;11.054;2023-07-13T03:44:05;20.90;89.20
5346;DHT22;2695;49.444;11.054;2023-07-13T03:46:36;20.90;88.20
5346;DHT22;2695;49.444;11.054;2023-07-13T03:49:05;21.10;87.70
5346;DHT22;2695;49.444;11.054;2023-07-13T03:51:36;20.90;87.20
5346;DHT22;2695;49.444;11.054;2023-07-13T03:54:06;21.10;87.20
5346;DHT22;2695;49.444;11.054;2023-07-13T03:56:35;21.10;87.20
5346;DHT22;2695;49.444;11.054;2023-07-13T03:59:11;21.10;87.20
5346;DHT22;2695;49.444;11.054;2023-07-13T04:01:49;21.10;87.50
5346;DHT22;2695;49.444;11.054;2023-07-13T04:04:18;21.50;87.10
5346;DHT22;2695;49.444;11.054;2023-07-13T04:06:46;21.80;85.30
5346;DHT22;2695;49.444;11.054;2023-07-13T04:09:14;22.40;83.90
5346;DHT22;2695;49.444;11.054;2023-07-13T04:11:42;23.10;79.40
5346;DHT22;2695;49.444;11.054;2023-07-13T04:14:11;23.50;76.90
5346;DHT22;2695;49.444;11.054;2023-07-13T04:16:39;23.60;75.40
5346;DHT22;2695;49.444;11.054;2023-07-13T04:19:10;23.50;75.10
5346;DHT22;2695;49.444;11.054;2023-07-13T04:21:39;23.30;75.80
5346;DHT22;2695;49.444;11.054;2023-07-13T04:24:10;23.20;75.50
5346;DHT22;2695;49.444;11.054;2023-07-13T04:26:38;23.00;75.60
5346;DHT22;2695;49.444;11.054;2023-07-13T04:29:07;22.90;75.30
5346;DHT22;2695;49.444;11.054;2023-07-13T04:31:41;22.90;76.30
5346;DHT22;2695;49.444;11.054;2023-07-13T04:34:25;22.90;76.10
5346;DHT22;2695;49.444;11.054;2023-07-13T04:37:04;23.50;75.10
5346;DHT22;2695;49.444;11.054;2023-07-13T04:39:34;23.90;73.80
5346;DHT22;2695;49.444;11.054;2023-07-13T04:42:03;24.20;72.20
5346;DHT22;2695;49.444;11.054;2023-07-13T04:44:35;24.20;71.20
5346;DHT22;2695;49.444;11.054;2023-07-13T04:47:06;24.10;71.30
5346;DHT22;2695;49.444;11.054;2023-07-13T04:49:37;24.40;72.10
5346;DHT22;2695;49.444;11.054;2023-07-13T04:52:07;24.40;71.70
5346;DHT22;2695;49.444;11.054;2023-07-13T04:54:36;24.80;70.10
5346;DHT22;2695;49.444;11.054;2023-07-13T04:57:05;25.00;69.70
5346;DHT22;2695;49.444;11.054;2023-07-13T04:59:34;26.00;66.40
5346;DHT22;2695;49.444;11.054;2023-07-13T05:02:02;27.10;62.40
5346;DHT22;2695;49.444;11.054;2023-07-13T05:04:35;27.60;60.00
5346;DHT22;2695;49.444;11.054;2023-07-13T05:07:04;27.50;59.60
5346;DHT22;2695;49.444;11.054;2023-07-13T05:09:34;27.10;60.00
5346;DHT22;2695;49.444;11.054;2023-07-13T05:12:02;27.00;59.80
5346;DHT22;2695;49.444;11.054;2023-07-13T05:14:30;27.40;59.30
5346;DHT22;2695;49.444;11.054;2023-07-13T05:16:58;27.90;57.60
5346;DHT22;2695;49.444;11.054;2023-07-13T05:19:27;27.80;57.40
5346;DHT22;2695;49.444;11.054;2023-07-13T05:21:55;27.70;57.60
5346;DHT22;2695;49.444;11.054;2023-07-13T05:24:23;27.70;57.60
5346;DHT22;2695;49.444;11.054;2023-07-13T05:26:53;27.90;56.80
5346;DHT22;2695;49.444;11.054;2023-07-13T05:29:21;28.40;56.20
5346;DHT22;2695;49.444;11.054;2023-07-13T05:31:49;29.00;54.90
5346;DHT22;2695;49.444;11.054;2023-07-13T05:34:17;29.30;53.80
5346;DHT22;2695;49.444;11.054;2023-07-13T05:36:49;29.90;52.60
5346;DHT22;2695;49.444;11.054;2023-07-13T05:39:17;30.80;50.80
5346;DHT22;2695;49.444;11.054;2023-07-13T05:41:45;32.00;48.40
5346;DHT22;2695;49.444;11.054;2023-07-13T05:44:15;32.80;46.20
5346;DHT22;2695;49.444;11.054;2023-07-13T05:46:42;33.50;44.50
5346;DHT22;2695;49.444;11.054;2023-07-13T05:49:11;33.40;43.90
5346;DHT22;2695;49.444;11.054;2023-07-13T05:51:39;33.50;43.80
5346;DHT22;2695;49.444;11.054;2023-07-13T05:54:07;33.10;43.50
5346;DHT22;2695;49.444;11.054;2023-07-13T05:56:35;32.80;44.00
5346;DHT22;2695;49.444;11.054;2023-07-13T05:59:02;32.30;45.20
5346;DHT22;2695;49.444;11.054;2023-07-13T06:01:32;32.00;45.30
5346;DHT22;2695;49.444;11.054;2023-07-13T06:04:00;32.10;45.00
5346;DHT22;2695;49.444;11.054;2023-07-13T06:06:28;32.20;44.70
5346;DHT22;2695;49.444;11.054;2023-07-13T06:08:56;32.70;43.90
5346;DHT22;2695;49.444;11.054;2023-07-13T06:11:25;32.90;43.20
5346;DHT22;2695;49.444;11.054;2023-07-13T06:13:56;33.00;42.60
5346;DHT22;2695;49.444;11.054;2023-07-13T06:16:24;32.20;43.20
5346;DHT22;2695;49.444;11.054;2023-07-13T06:18:54;30.90;45.30
5346;DHT22;2695;49.444;11.054;2023-07-13T06:21:23;30.00;47.50
5346;DHT22;2695;49.444;11.054;2023-07-13T06:23:53;29.30;48.70
5346;DHT22;2695;49.444;11.054;2023-07-13T06:26:24;29.40;48.80
5346;DHT22;2695;49.444;11.054;2023-07-13T06:28:59;30.30;47.70
5346;DHT22;2695;49.444;11.054;2023-07-13T06:31:44;31.60;45.80
5346;DHT22;2695;49.444;11.054;2023-07-13T06:34:21;33.10;43.80
5346;DHT22;2695;49.444;11.054;2023-07-13T06:36:51;33.90;41.60
5346;DHT22;2695;49.444;11.054;2023-07-13T06:39:19;34.20;40.80
5346;DHT22;2695;49.444;11.054;2023-07-13T06:41:52;34.20;40.50
5346;DHT22;2695;49.444;11.054;2023-07-13T06:44:23;34.40;41.20
5346;DHT22;2695;49.444;11.054;2023-07-13T06:46:55;33.30;41.10
5346;DHT22;2695;49.444;11.054;2023-07-13T06:49:24;32.40;42.20
5346;DHT22;2695;49.444;11.054;2023-07-13T06:51:52;31.30;44.00
5346;DHT22;2695;49.444;11.054;2023-07-13T06:54:20;30.30;45.80
5346;DHT22;2695;49.444;11.054;2023-07-13T06:56:48;29.90;46.50
5346;DHT22;2695;49.444;11.054;2023-07-13T06:59:19;31.00;45.80
5346;DHT22;2695;49.444;11.054;2023-07-13T07:01:53;31.70;44.30
5346;DHT22;2695;49.444;11.054;2023-07-13T07:04:23;30.90;44.30
5346;DHT22;2695;49.444;11.054;2023-07-13T07:06:55;30.20;46.20
5346;DHT22;2695;49.444;11.054;2023-07-13T07:09:25;30.70;45.80
5346;DHT22;2695;49.444;11.054;2023-07-13T07:11:53;31.50;45.10
5346;DHT22;2695;49.444;11.054;2023-07-13T07:14:30;32.80;42.70
5346;DHT22;2695;49.444;11.054;2023-07-13T07:16:58;32.90;42.30
5346;DHT22;2695;49.444;11.054;2023-07-13T07:19:29;33.30;42.30
5346;DHT22;2695;49.444;11.054;2023-07-13T07:21:57;34.60;40.50
5346;DHT22;2695;49.444;11.054;2023-07-13T07:24:25;35.30;38.60
5346;DHT22;2695;49.444;11.054;2023-07-13T07:26:53;35.20;38.40
5346;DHT22;2695;49.444;11.054;2023-07-13T07:29:24;34.30;39.20
5346;DHT22;2695;49.444;11.054;2023-07-13T07:31:55;34.00;39.70
5346;DHT22;2695;49.444;11.054;2023-07-13T07:34:28;33.80;40.00
5346;DHT22;2695;49.444;11.054;2023-07-13T07:37:00;33.50;40.60
5346;DHT22;2695;49.444;11.054;2023-07-13T07:39:31;34.10;40.20
5346;DHT22;2695;49.444;11.054;2023-07-13T07:41:59;35.50;38.20
5346;DHT22;2695;49.444;11.054;2023-07-13T07:44:27;35.80;37.20
5346;DHT22;2695;49.444;11.054;2023-07-13T07:46:55;35.00;37.70
5346;DHT22;2695;49.444;11.054;2023-07-13T07:49:23;33.70;39.50
5346;DHT22;2695;49.444;11.054;2023-07-13T07:51:52;32.70;41.30
5346;DHT22;2695;49.444;11.054;2023-07-13T07:54:20;32.50;41.50
5346;DHT22;2695;49.444;11.054;2023-07-13T07:57:08;33.50;40.00
5346;DHT22;2695;49.444;11.054;2023-07-13T07:59:39;34.20;38.60
5346;DHT22;2695;49.444;11.054;2023-07-13T08:02:10;34.20;38.80
5346;DHT22;2695;49.444;11.054;2023-07-13T08:04:58;34.40;38.90
5346;DHT22;2695;49.444;11.054;2023-07-13T08:07:31;35.70;37.30
5346;DHT22;2695;49.444;11.054;2023-07-13T08:09:59;37.30;34.90
5346;DHT22;2695;49.444;11.054;2023-07-13T08:12:33;38.80;33.20
5346;DHT22;2695;49.444;11.054;2023-07-13T08:15:05;40.30;30.40
5346;DHT22;2695;49.444;11.054;2023-07-13T08:17:34;41.10;29.20
5346;DHT22;2695;49.444;11.054;2023-07-13T08:20:02;41.60;28.60
5346;DHT22;2695;49.444;11.054;2023-07-13T08:22:32;41.90;28.00
5346;DHT22;2695;49.444;11.054;2023-07-13T08:25:00;42.40;27.10
5346;DHT22;2695;49.444;11.054;2023-07-13T08:27:29;42.80;26.30
5346;DHT22;2695;49.444;11.054;2023-07-13T08:29:57;43.20;25.40
5346;DHT22;2695;49.444;11.054;2023-07-13T08:32:25;43.60;24.60
5346;DHT22;2695;49.444;11.054;2023-07-13T08:34:53;43.70;24.00
5346;DHT22;2695;49.444;11.054;2023-07-13T08:37:21;43.80;23.60
5346;DHT22;2695;49.444;11.054;2023-07-13T08:39:50;44.10;23.50
5346;DHT22;2695;49.444;11.054;2023-07-13T08:42:27;44.20;23.60
5346;DHT22;2695;49.444;11.054;2023-07-13T08:45:07;44.40;23.40
5346;DHT22;2695;49.444;11.054;2023-07-13T08:47:40;44.50;22.40
5346;DHT22;2695;49.444;11.054;2023-07-13T08:50:13;44.20;22.20
5346;DHT22;2695;49.444;11.054;2023-07-13T08:52:43;43.20;22.90
5346;DHT22;2695;49.444;11.054;2023-07-13T08:55:15;43.20;22.80
5346;DHT22;2695;49.444;11.054;2023-07-13T08:57:46;43.30;22.40
5346;DHT22;2695;49.444;11.054;2023-07-13T09:00:15;43.40;22.40
5346;DHT22;2695;49.444;11.054;2023-07-13T09:02:46;43.60;22.30
5346;DHT22;2695;49.444;11.054;2023-07-13T09:05:21;43.60;22.10
5346;DHT22;2695;49.444;11.054;2023-07-13T09:08:02;43.50;22.30
5346;DHT22;2695;49.444;11.054;2023-07-13T09:10:40;43.70;22.00
5346;DHT22;2695;49.444;11.054;2023-07-13T09:13:21;43.70;21.90
5346;DHT22;2695;49.444;11.054;2023-07-13T09:15:52;43.60;22.10
5346;DHT22;2695;49.444;11.054;2023-07-13T09:18:26;43.70;22.50
5346;DHT22;2695;49.444;11.054;2023-07-13T09:20:58;44.30;21.70
5346;DHT22;2695;49.444;11.054;2023-07-13T09:23:29;44.30;21.40
5346;DHT22;2695;49.444;11.054;2023-07-13T09:26:03;43.70;21.60
5346;DHT22;2695;49.444;11.054;2023-07-13T09:28:37;43.10;21.70
5346;DHT22;2695;49.444;11.054;2023-07-13T09:31:10;42.70;22.30
5346;DHT22;2695;49.444;11.054;2023-07-13T09:33:41;42.80;22.00
5346;DHT22;2695;49.444;11.054;2023-07-13T09:36:18;43.20;22.10
5346;DHT22;2695;49.444;11.054;2023-07-13T09:38:48;43.60;22.10
5346;DHT22;2695;49.444;11.054;2023-07-13T09:41:39;43.80;22.00
5346;DHT22;2695;49.444;11.054;2023-07-13T09:44:10;44.00;21.30
5346;DHT22;2695;49.444;11.054;2023-07-13T09:46:43;43.90;21.10
5346;DHT22;2695;49.444;11.054;2023-07-13T09:49:12;43.90;21.30
5346;DHT22;2695;49.444;11.054;2023-07-13T09:51:42;44.40;20.90
5346;DHT22;2695;49.444;11.054;2023-07-13T09:54:22;44.40;20.80
5346;DHT22;2695;49.444;11.054;2023-07-13T09:56:55;44.70;20.30
5346;DHT22;2695;49.444;11.054;2023-07-13T09:59:27;44.80;19.90
5346;DHT22;2695;49.444;11.054;2023-07-13T10:01:56;44.40;20.00
5346;DHT22;2695;49.444;11.054;2023-07-13T10:04:33;43.70;20.00
5346;DHT22;2695;49.444;11.054;2023-07-13T10:07:06;43.20;20.40
5346;DHT22;2695;49.444;11.054;2023-07-13T10:09:54;43.40;20.80
5346;DHT22;2695;49.444;11.054;2023-07-13T10:12:24;43.40;20.70
5346;DHT22;2695;49.444;11.054;2023-07-13T10:14:54;43.30;20.70
5346;DHT22;2695;49.444;11.054;2023-07-13T10:17:44;43.50;20.60
5346;DHT22;2695;49.444;11.054;2023-07-13T10:20:12;43.10;20.80
5346;DHT22;2695;49.444;11.054;2023-07-13T10:22:45;43.00;20.90
5346;DHT22;2695;49.444;11.054;2023-07-13T10:25:20;42.90;21.30
5346;DHT22;2695;49.444;11.054;2023-07-13T10:27:52;42.90;21.20
5346;DHT22;2695;49.444;11.054;2023-07-13T10:30:23;43.00;21.20
5346;DHT22;2695;49.444;11.054;2023-07-13T10:33:00;42.70;21.00
5346;DHT22;2695;49.444;11.054;2023-07-13T10:35:29;42.80;21.10
5346;DHT22;2695;49.444;11.054;2023-07-13T10:38:02;42.30;21.10
5346;DHT22;2695;49.444;11.054;2023-07-13T10:40:37;41.70;22.20
5346;DHT22;2695;49.444;11.054;2023-07-13T10:43:13;41.20;22.00
5346;DHT22;2695;49.444;11.054;2023-07-13T10:45:45;40.40;22.70
5346;DHT22;2695;49.444;11.054;2023-07-13T10:48:16;40.40;22.60
5346;DHT22;2695;49.444;11.054;2023-07-13T10:50:46;40.50;22.40
5346;DHT22;2695;49.444;11.054;2023-07-13T10:53:21;39.80;22.90
5346;DHT22;2695;49.444;11.054;2023-07-13T10:55:59;39.10;23.40
5346;DHT22;2695;49.444;11.054;2023-07-13T10:58:35;38.40;24.20
5346;DHT22;2695;49.444;11.054;2023-07-13T11:01:07;38.90;24.00
5346;DHT22;2695;49.444;11.054;2023-07-13T11:03:38;39.70;23.10
5346;DHT22;2695;49.444;11.054;2023-07-13T11:06:12;39.80;23.20
5346;DHT22;2695;49.444;11.054;2023-07-13T11:08:52;39.80;23.20
5346;DHT22;2695;49.444;11.054;2023-07-13T11:11:35;39.70;23.20
5346;DHT22;2695;49.444;11.054;2023-07-13T11:14:26;38.80;24.10
5346;DHT22;2695;49.444;11.054;2023-07-13T11:16:54;37.30;25.20
5346;DHT22;2695;49.444;11.054;2023-07-13T11:19:41;36.30;26.30
5346;DHT22;2695;49.444;11.054;2023-07-13T11:22:12;36.30;26.30
5346;DHT22;2695;49.444;11.054;2023-07-13T11:24:54;36.40;25.90
5346;DHT22;2695;49.444;11.054;2023-07-13T11:27:36;36.30;26.70
5346;DHT22;2695;49.444;11.054;2023-07-13T11:30:19;35.90;26.90
5346;DHT22;2695;49.444;11.054;2023-07-13T11:33:02;35.20;27.50
5346;DHT22;2695;49.444;11.054;2023-07-13T11:35:34;34.30;28.10
5346;DHT22;2695;49.444;11.054;2023-07-13T11:38:13;34.60;28.10
5346;DHT22;2695;49.444;11.054;2023-07-13T11:40:44;35.40;27.30
5346;DHT22;2695;49.444;11.054;2023-07-13T11:43:22;35.80;26.70
5346;DHT22;2695;49.444;11.054;2023-07-13T11:45:52;35.70;26.70
5346;DHT22;2695;49.444;11.054;2023-07-13T11:48:23;35.70;27.00
5346;DHT22;2695;49.444;11.054;2023-07-13T11:50:55;35.30;26.70
5346;DHT22;2695;49.444;11.054;2023-07-13T11:53:27;34.90;27.10
5346;DHT22;2695;49.444;11.054;2023-07-13T11:55:56;34.40;27.40
5346;DHT22;2695;49.444;11.054;2023-07-13T11:58:26;34.40;27.60
5346;DHT22;2695;49.444;11.054;2023-07-13T12:00:58;34.50;27.80
5346;DHT22;2695;49.444;11.054;2023-07-13T12:03:29;34.70;27.90
5346;DHT22;2695;49.444;11.054;2023-07-13T12:05:59;34.70;27.80
5346;DHT22;2695;49.444;11.054;2023-07-13T12:08:28;34.30;28.70
5346;DHT22;2695;49.444;11.054;2023-07-13T12:11:03;33.70;29.60
5346;DHT22;2695;49.444;11.054;2023-07-13T12:13:37;33.30;30.30
5346;DHT22;2695;49.444;11.054;2023-07-13T12:16:28;33.30;30.00
5346;DHT22;2695;49.444;11.054;2023-07-13T12:18:57;33.60;29.80
5346;DHT22;2695;49.444;11.054;2023-07-13T12:21:31;33.90;29.80
5346;DHT22;2695;49.444;11.054;2023-07-13T12:24:00;34.10;29.60
5346;DHT22;2695;49.444;11.054;2023-07-13T12:26:32;34.10;29.60
5346;DHT22;2695;49.444;11.054;2023-07-13T12:29:01;34.10;29.60
5346;DHT22;2695;49.444;11.054;2023-07-13T12:31:36;34.00;29.80
5346;DHT22;2695;49.444;11.054;2023-07-13T12:34:10;33.80;30.20
5346;DHT22;2695;49.444;11.054;2023-07-13T12:36:49;33.50;30.40
5346;DHT22;2695;49.444;11.054;2023-07-13T12:39:20;33.10;30.90
5346;DHT22;2695;49.444;11.054;2023-07-13T12:41:51;32.80;31.50
5346;DHT22;2695;49.444;11.054;2023-07-13T12:44:25;32.90;31.40
5346;DHT22;2695;49.444;11.054;2023-07-13T12:46:58;33.00;31.50
5346;DHT22;2695;49.444;11.054;2023-07-13T12:49:29;33.10;31.20
5346;DHT22;2695;49.444;11.054;2023-07-13T12:52:02;33.10;31.30
5346;DHT22;2695;49.444;11.054;2023-07-13T12:54:31;33.20;30.60
5346;DHT22;2695;49.444;11.054;2023-07-13T12:57:03;33.20;30.10
5346;DHT22;2695;49.444;11.054;2023-07-13T12:59:36;33.10;30.10
5346;DHT22;2695;49.444;11.054;2023-07-13T13:02:21;32.50;31.10
5346;DHT22;2695;49.444;11.054;2023-07-13T13:04:50;32.50;31.40
5346;DHT22;2695;49.444;11.054;2023-07-13T13:07:19;32.50;31.80
5346;DHT22;2695;49.444;11.054;2023-07-13T13:09:47;32.60;32.30
5346;DHT22;2695;49.444;11.054;2023-07-13T13:12:15;32.50;31.50
5346;DHT22;2695;49.444;11.054;2023-07-13T13:14:43;32.20;32.30
5346;DHT22;2695;49.444;11.054;2023-07-13T13:17:20;32.10;32.30
5346;DHT22;2695;49.444;11.054;2023-07-13T13:19:51;32.00;32.40
5346;DHT22;2695;49.444;11.054;2023-07-13T13:22:21;31.80;32.30
5346;DHT22;2695;49.444;11.054;2023-07-13T13:24:49;31.80;32.90
5346;DHT22;2695;49.444;11.054;2023-07-13T13:27:19;31.80;33.20
5346;DHT22;2695;49.444;11.054;2023-07-13T13:29:48;31.80;33.00
5346;DHT22;2695;49.444;11.054;2023-07-13T13:32:19;31.70;33.70
5346;DHT22;2695;49.444;11.054;2023-07-13T13:34:47;31.60;33.30
5346;DHT22;2695;49.444;11.054;2023-07-13T13:37:19;31.60;33.70
5346;DHT22;2695;49.444;11.054;2023-07-13T13:39:48;31.70;33.70
5346;DHT22;2695;49.444;11.054;2023-07-13T13:42:34;31.90;33.30
5346;DHT22;2695;49.444;11.054;2023-07-13T13:45:03;32.00;33.30
5346;DHT22;2695;49.444;11.054;2023-07-13T13:47:33;31.90;33.30
5346;DHT22;2695;49.444;11.054;2023-07-13T13:50:12;31.60;34.00
5346;DHT22;2695;49.444;11.054;2023-07-13T13:52:41;31.20;33.10
5346;DHT22;2695;49.444;11.054;2023-07-13T13:55:14;31.10;33.80
5346;DHT22;2695;49.444;11.054;2023-07-13T13:57:43;31.00;34.20
5346;DHT22;2695;49.444;11.054;2023-07-13T14:00:12;30.70;34.30
5346;DHT22;2695;49.444;11.054;2023-07-13T14:02:46;30.50;35.20
5346;DHT22;2695;49.444;11.054;2023-07-13T14:05:17;30.40;34.80
5346;DHT22;2695;49.444;11.054;2023-07-13T14:07:46;30.20;35.00
5346;DHT22;2695;49.444;11.054;2023-07-13T14:10:18;30.30;35.20
5346;DHT22;2695;49.444;11.054;2023-07-13T14:12:47;30.40;35.30
5346;DHT22;2695;49.444;11.054;2023-07-13T14:15:20;30.50;35.40
5346;DHT22;2695;49.444;11.054;2023-07-13T14:17:50;30.90;35.40
5346;DHT22;2695;49.444;11.054;2023-07-13T14:20:20;30.80;35.20
5346;DHT22;2695;49.444;11.054;2023-07-13T14:22:49;30.80;34.90
5346;DHT22;2695;49.444;11.054;2023-07-13T14:25:18;30.90;34.60
5346;DHT22;2695;49.444;11.054;2023-07-13T14:27:49;30.90;34.80
5346;DHT22;2695;49.444;11.054;2023-07-13T14:30:19;30.90;34.90
5346;DHT22;2695;49.444;11.054;2023-07-13T14:32:49;30.80;34.40
5346;DHT22;2695;49.444;11.054;2023-07-13T14:35:19;30.80;34.80
5346;DHT22;2695;49.444;11.054;2023-07-13T14:37:48;30.90;34.60
5346;DHT22;2695;49.444;11.054;2023-07-13T14:40:19;30.90;34.40
5346;DHT22;2695;49.444;11.054;2023-07-13T14:42:48;30.70;34.20
5346;DHT22;2695;49.444;11.054;2023-07-13T14:45:19;30.50;35.00
5346;DHT22;2695;49.444;11.054;2023-07-13T14:47:48;30.50;34.30
5346;DHT22;2695;49.444;11.054;2023-07-13T14:50:20;30.50;34.50
5346;DHT22;2695;49.444;11.054;2023-07-13T14:52:48;30.40;34.10
5346;DHT22;2695;49.444;11.054;2023-07-13T14:55:18;30.30;33.90
5346;DHT22;2695;49.444;11.054;2023-07-13T14:57:46;30.10;33.80
5346;DHT22;2695;49.444;11.054;2023-07-13T15:00:16;30.10;34.40
5346;DHT22;2695;49.444;11.054;2023-07-13T15:02:47;30.30;34.30
5346;DHT22;2695;49.444;11.054;2023-07-13T15:05:18;30.30;34.10
5346;DHT22;2695;49.444;11.054;2023-07-13T15:07:48;30.30;33.60
5346;DHT22;2695;49.444;11.054;2023-07-13T15:10:19;30.10;33.40
5346;DHT22;2695;49.444;11.054;2023-07-13T15:12:48;30.10;33.40
5346;DHT22;2695;49.444;11.054;2023-07-13T15:15:16;30.00;33.80
5346;DHT22;2695;49.444;11.054;2023-07-13T15:17:45;29.80;34.40
5346;DHT22;2695;49.444;11.054;2023-07-13T15:20:26;29.80;35.50
5346;DHT22;2695;49.444;11.054;2023-07-13T15:22:58;29.90;34.90
5346;DHT22;2695;49.444;11.054;2023-07-13T15:25:28;29.90;34.00
5346;DHT22;2695;49.444;11.054;2023-07-13T15:27:58;29.80;34.80
5346;DHT22;2695;49.444;11.054;2023-07-13T15:30:28;29.80;34.00
5346;DHT22;2695;49.444;11.054;2023-07-13T15:32:57;29.70;34.70
5346;DHT22;2695;49.444;11.054;2023-07-13T15:35:28;29.80;35.40
5346;DHT22;2695;49.444;11.054;2023-07-13T15:37:57;29.80;35.30
5346;DHT22;2695;49.444;11.054;2023-07-13T15:40:25;29.80;34.60
5346;DHT22;2695;49.444;11.054;2023-07-13T15:42:53;29.80;34.50
5346;DHT22;2695;49.444;11.054;2023-07-13T15:45:23;29.60;34.90
5346;DHT22;2695;49.444;11.054;2023-07-13T15:47:52;29.70;35.50
5346;DHT22;2695;49.444;11.054;2023-07-13T15:50:23;29.60;35.50
5346;DHT22;2695;49.444;11.054;2023-07-13T15:52:55;29.60;35.50
5346;DHT22;2695;49.444;11.054;2023-07-13T15:55:26;29.40;36.10
5346;DHT22;2695;49.444;11.054;2023-07-13T15:57:53;29.10;35.70
5346;DHT22;2695;49.444;11.054;2023-07-13T16:00:24;29.10;36.50
5346;DHT22;2695;49.444;11.054;2023-07-13T16:02:52;29.10;36.80
5346;DHT22;2695;49.444;11.054;2023-07-13T16:05:21;29.10;36.70
5346;DHT22;2695;49.444;11.054;2023-07-13T16:07:51;29.10;36.50
5346;DHT22;2695;49.444;11.054;2023-07-13T16:10:26;29.20;37.50
5346;DHT22;2695;49.444;11.054;2023-07-13T16:12:59;29.30;37.30